createdAt,value
2019-03-28T00:01:14.898Z,79.59
2019-03-28T00:03:45.805Z,79.55
2019-03-28T00:06:17.082Z,79.71
2019-03-28T00:08:47.982Z,79.89
2019-03-28T00:11:19.724Z,79.54
2019-03-28T00:13:50.616Z,79.33
2019-03-28T00:16:21.546Z,79.52
2019-03-28T00:18:53.181Z,79.37
2019-03-28T00:21:25.158Z,79.30
2019-03-28T00:24:00.889Z,79.06
2019-03-28T00:26:32.064Z,79.16
2019-03-28T00:29:03.161Z,79.18
2019-03-28T00:31:34.139Z,79.17
2019-03-28T00:34:05.010Z,79.35
2019-03-28T00:36:36.751Z,79.18
2019-03-28T00:39:08.064Z,79.26
2019-03-28T00:41:38.996Z,79.37
2019-03-28T00:44:09.899Z,79.31
2019-03-28T00:46:40.834Z,79.19
2019-03-28T00:49:11.726Z,79.44
2019-03-28T00:51:43.541Z,79.44
2019-03-28T00:54:14.422Z,79.35
2019-03-28T00:56:47.614Z,79.52
2019-03-28T00:59:17.941Z,79.50
2019-03-28T01:01:48.865Z,79.51
2019-03-28T01:04:19.785Z,79.53
2019-03-28T01:06:51.795Z,79.49
2019-03-28T01:09:22.693Z,79.59
2019-03-28T01:11:53.623Z,79.22
2019-03-28T01:14:24.523Z,79.26
2019-03-28T01:16:55.453Z,79.14
2019-03-28T01:19:27.553Z,79.09
2019-03-28T01:21:58.503Z,79.34
2019-03-28T01:24:29.404Z,79.50
2019-03-28T01:27:00.444Z,79.43
2019-03-28T01:29:31.846Z,79.64
2019-03-28T01:32:03.177Z,79.83
2019-03-28T01:34:34.074Z,79.76
2019-03-28T01:37:05.937Z,79.46
2019-03-28T01:39:36.834Z,79.64
2019-03-28T01:42:07.772Z,79.49
2019-03-28T01:44:38.674Z,79.75
2019-03-28T01:47:09.592Z,79.54
2019-03-28T01:49:40.493Z,79.75
2019-03-28T01:52:11.447Z,79.40
2019-03-28T01:54:42.348Z,79.93
2019-03-28T01:57:13.277Z,79.82
2019-03-28T01:59:44.173Z,80.08
2019-03-28T02:02:15.107Z,80.05
2019-03-28T02:04:46.010Z,80.30
2019-03-28T02:07:17.950Z,80.33
2019-03-28T02:09:48.851Z,80.78
2019-03-28T02:12:19.782Z,80.64
2019-03-28T02:14:50.744Z,80.70
2019-03-28T02:17:22.941Z,80.42
2019-03-28T02:19:53.855Z,80.75
2019-03-28T02:22:24.806Z,81.26
2019-03-28T02:24:55.705Z,81.21
2019-03-28T02:27:26.637Z,81.71
2019-03-28T02:29:58.889Z,81.32
2019-03-28T02:32:29.849Z,81.38
2019-03-28T02:35:00.805Z,81.15
2019-03-28T02:37:31.792Z,81.09
2019-03-28T02:40:02.697Z,81.06
2019-03-28T02:42:33.633Z,81.42
2019-03-28T02:45:05.431Z,81.35
2019-03-28T02:47:36.375Z,81.18
2019-03-28T02:50:08.179Z,81.49
2019-03-28T02:52:39.144Z,81.68
2019-03-28T02:55:10.141Z,81.82
2019-03-28T02:57:43.582Z,81.82
2019-03-28T03:00:13.984Z,81.78
2019-03-28T03:02:44.905Z,81.90
2019-03-28T03:05:15.807Z,82.14
2019-03-28T03:07:46.784Z,82.27
2019-03-28T03:10:17.891Z,82.28
2019-03-28T03:12:48.790Z,82.65
2019-03-28T03:15:19.699Z,82.32
2019-03-28T03:17:50.631Z,82.06
2019-03-28T03:20:21.535Z,82.04
2019-03-28T03:22:52.484Z,81.63
2019-03-28T03:25:23.382Z,82.00
2019-03-28T03:27:58.333Z,81.91
2019-03-28T03:30:26.914Z,81.35
2019-03-28T03:32:57.846Z,81.72
2019-03-28T03:35:28.852Z,81.36
2019-03-28T03:37:59.883Z,81.30
2019-03-28T03:40:30.811Z,81.18
2019-03-28T03:43:03.755Z,81.10
2019-03-28T03:45:35.570Z,81.33
2019-03-28T03:48:06.995Z,81.51
2019-03-28T03:50:37.897Z,81.38
2019-03-28T03:53:09.761Z,81.49
2019-03-28T03:55:43.371Z,81.50
2019-03-28T03:58:16.848Z,81.32
2019-03-28T04:00:46.918Z,81.65
2019-03-28T04:03:17.840Z,81.45
2019-03-28T04:05:48.797Z,81.36
2019-03-28T04:08:20.669Z,81.42
2019-03-28T04:10:51.622Z,81.21
2019-03-28T04:13:22.608Z,81.15
2019-03-28T04:15:53.703Z,81.37
2019-03-28T04:18:24.687Z,81.56
2019-03-28T04:20:57.240Z,81.54
2019-03-28T04:23:30.737Z,81.32
2019-03-28T04:26:01.677Z,81.33
2019-03-28T04:28:32.893Z,81.37
2019-03-28T04:31:03.994Z,81.60
2019-03-28T04:33:35.771Z,81.64
2019-03-28T04:36:06.882Z,81.82
2019-03-28T04:38:38.806Z,81.87
2019-03-28T04:41:09.764Z,82.07
2019-03-28T04:43:40.755Z,82.05
2019-03-28T04:46:11.703Z,82.18
2019-03-28T04:48:42.674Z,82.16
2019-03-28T04:51:13.628Z,81.84
2019-03-28T04:53:45.457Z,81.42
2019-03-28T04:56:16.410Z,81.86
2019-03-28T04:58:47.399Z,82.01
2019-03-28T05:01:18.348Z,81.86
2019-03-28T05:03:49.455Z,81.95
2019-03-28T05:06:20.580Z,81.97
2019-03-28T05:08:51.573Z,81.68
2019-03-28T05:11:22.516Z,81.99
2019-03-28T05:13:53.499Z,81.89
2019-03-28T05:16:24.459Z,81.74
2019-03-28T05:18:55.445Z,81.84
2019-03-28T05:21:27.974Z,81.63
2019-03-28T05:24:02.732Z,81.42
2019-03-28T05:26:33.686Z,81.52
2019-03-28T05:29:04.680Z,81.58
2019-03-28T05:31:35.699Z,81.56
2019-03-28T05:34:06.690Z,81.39
2019-03-28T05:36:37.648Z,81.54
2019-03-28T05:39:08.660Z,81.38
2019-03-28T05:41:39.608Z,81.47
2019-03-28T05:44:10.589Z,81.40
2019-03-28T05:46:41.552Z,81.59
2019-03-28T05:49:12.535Z,81.50
2019-03-28T05:51:43.486Z,81.34
2019-03-28T05:54:15.304Z,81.22
2019-03-28T05:56:46.236Z,81.15
2019-03-28T05:59:17.177Z,81.03
2019-03-28T06:01:48.154Z,80.79
2019-03-28T06:04:19.097Z,80.65
2019-03-28T06:06:50.005Z,80.51
2019-03-28T06:09:24.556Z,80.35
2019-03-28T06:11:55.428Z,80.10
2019-03-28T06:14:26.379Z,80.06
2019-03-28T06:16:57.284Z,79.77
2019-03-28T06:19:28.212Z,79.70
2019-03-28T06:22:00.705Z,79.65
2019-03-28T06:24:31.668Z,79.65
2019-03-28T06:27:02.587Z,79.59
2019-03-28T06:29:33.455Z,79.60
2019-03-28T06:32:04.408Z,79.51
2019-03-28T06:34:35.325Z,79.43
2019-03-28T06:37:06.495Z,79.28
2019-03-28T06:39:39.516Z,79.27
2019-03-28T06:42:10.422Z,79.64
2019-03-28T06:44:41.349Z,79.66
2019-03-28T06:47:12.255Z,79.40
2019-03-28T06:49:43.233Z,79.24
2019-03-28T06:52:14.131Z,79.18
2019-03-28T06:54:46.085Z,79.10
2019-03-28T06:57:18.945Z,78.85
2019-03-28T06:59:49.615Z,78.48
2019-03-28T07:02:21.911Z,78.27
2019-03-28T07:04:53.033Z,78.14
2019-03-28T07:07:23.931Z,78.04
2019-03-28T07:09:55.766Z,77.89
2019-03-28T07:12:26.678Z,77.70
2019-03-28T07:14:59.627Z,77.62
2019-03-28T07:17:30.203Z,77.61
2019-03-28T07:20:01.135Z,77.50
2019-03-28T07:22:32.954Z,77.30
2019-03-28T07:25:05.887Z,77.08
2019-03-28T07:27:36.783Z,76.55
2019-03-28T07:30:10.121Z,76.60
2019-03-28T07:32:43.304Z,76.38
2019-03-28T07:35:13.655Z,76.40
2019-03-28T07:37:44.552Z,75.76
2019-03-28T07:40:16.068Z,75.15
2019-03-28T07:42:46.969Z,74.85
2019-03-28T07:45:18.003Z,74.51
2019-03-28T07:47:48.909Z,74.10
2019-03-28T07:50:19.845Z,74.18
2019-03-28T07:52:50.826Z,73.64
2019-03-28T07:55:22.597Z,73.07
2019-03-28T07:57:53.509Z,72.70
2019-03-28T08:00:26.634Z,72.37
2019-03-28T08:02:58.549Z,72.08
2019-03-28T08:05:29.644Z,71.64
2019-03-28T08:08:00.579Z,71.16
2019-03-28T08:10:31.533Z,70.80
2019-03-28T08:13:02.505Z,70.56
2019-03-28T08:15:33.433Z,70.21
2019-03-28T08:18:04.346Z,70.19
2019-03-28T08:20:35.280Z,70.12
2019-03-28T08:23:06.199Z,69.77
2019-03-28T08:25:38.027Z,69.51
2019-03-28T08:28:08.927Z,69.43
2019-03-28T08:30:40.156Z,68.95
2019-03-28T08:33:11.067Z,68.94
2019-03-28T08:35:47.082Z,68.99
2019-03-28T08:38:20.299Z,68.44
2019-03-28T08:40:53.021Z,67.83
2019-03-28T08:43:23.945Z,67.59
2019-03-28T08:45:54.903Z,67.65
2019-03-28T08:48:25.877Z,67.36
2019-03-28T08:50:56.812Z,66.58
2019-03-28T08:53:31.291Z,66.01
2019-03-28T08:56:02.965Z,65.99
2019-03-28T08:58:33.879Z,65.54
2019-03-28T09:01:05.890Z,65.15
2019-03-28T09:03:37.016Z,64.90
2019-03-28T09:06:07.971Z,64.71
2019-03-28T09:08:38.883Z,64.79
2019-03-28T09:11:10.731Z,64.45
2019-03-28T09:13:41.648Z,64.27
2019-03-28T09:16:12.589Z,64.03
2019-03-28T09:18:43.503Z,64.05
2019-03-28T09:21:14.450Z,64.32
2019-03-28T09:23:46.131Z,63.79
2019-03-28T09:26:17.130Z,63.66
2019-03-28T09:28:48.061Z,63.39
2019-03-28T09:31:20.366Z,63.42
2019-03-28T09:33:54.191Z,63.19
2019-03-28T09:36:25.138Z,63.59
2019-03-28T09:38:56.059Z,63.71
2019-03-28T09:41:29.313Z,63.70
2019-03-28T09:44:00.240Z,63.58
2019-03-28T09:46:31.166Z,63.30
2019-03-28T09:49:02.072Z,63.00
2019-03-28T09:51:35.196Z,62.73
2019-03-28T09:54:05.771Z,62.56
2019-03-28T09:56:37.615Z,62.94
2019-03-28T09:59:08.684Z,62.79
2019-03-28T10:01:39.749Z,62.90
2019-03-28T10:04:10.733Z,62.47
2019-03-28T10:06:41.675Z,62.15
2019-03-28T10:09:15.581Z,62.44
2019-03-28T10:11:47.496Z,61.87
2019-03-28T10:14:18.397Z,61.92
2019-03-28T10:16:49.333Z,62.22
2019-03-28T10:19:20.300Z,61.70
2019-03-28T10:21:51.229Z,61.76
2019-03-28T10:24:22.951Z,61.43
2019-03-28T10:26:54.879Z,61.10
2019-03-28T10:29:25.775Z,61.41
2019-03-28T10:31:56.749Z,62.01
2019-03-28T10:34:27.674Z,61.93
2019-03-28T10:37:00.393Z,61.92
2019-03-28T10:39:31.299Z,61.41
2019-03-28T10:42:03.145Z,60.82
2019-03-28T10:44:34.057Z,60.46
2019-03-28T10:47:05.257Z,59.76
2019-03-28T10:49:36.157Z,60.05
2019-03-28T10:52:07.410Z,60.01
2019-03-28T10:54:38.308Z,59.83
2019-03-28T10:57:33.002Z,59.23
2019-03-28T11:00:23.866Z,58.51
2019-03-28T11:03:19.629Z,58.77
2019-03-28T11:05:50.642Z,58.66
2019-03-28T11:08:21.870Z,57.98
2019-03-28T11:10:53.178Z,57.42
2019-03-28T11:13:24.274Z,57.27
2019-03-28T11:15:55.192Z,57.37
2019-03-28T11:18:29.817Z,57.87
2019-03-28T11:21:01.648Z,58.13
2019-03-28T11:23:34.774Z,58.25
2019-03-28T11:26:07.725Z,56.09
2019-03-28T11:28:40.370Z,55.63
2019-03-28T11:31:11.257Z,55.83
2019-03-28T11:33:52.769Z,54.56
2019-03-28T11:36:30.762Z,53.75
2019-03-28T11:39:02.925Z,53.45
2019-03-28T11:41:35.378Z,53.18
2019-03-28T11:44:06.322Z,53.52
2019-03-28T11:46:39.078Z,53.19
2019-03-28T11:49:10.090Z,53.24
2019-03-28T11:51:40.986Z,52.78
2019-03-28T11:54:17.814Z,53.03
2019-03-28T11:56:50.387Z,52.97
2019-03-28T11:59:38.790Z,53.83
2019-03-28T12:02:20.290Z,53.00
2019-03-28T12:04:50.138Z,52.19
2019-03-28T12:07:23.776Z,51.28
2019-03-28T12:09:54.725Z,52.45
2019-03-28T12:12:25.629Z,52.76
2019-03-28T12:14:56.578Z,52.63
2019-03-28T12:17:27.489Z,52.87
2019-03-28T12:19:58.409Z,53.11
2019-03-28T12:22:29.312Z,52.32
2019-03-28T12:25:00.422Z,51.73
2019-03-28T12:27:31.408Z,52.28
2019-03-28T12:30:03.152Z,52.20
2019-03-28T12:32:34.055Z,52.53
2019-03-28T12:35:06.482Z,53.35
2019-03-28T12:37:39.920Z,59.32
2019-03-28T12:40:10.615Z,59.77
2019-03-28T12:42:41.507Z,58.19
2019-03-28T12:45:12.993Z,59.73
2019-03-28T12:47:43.873Z,60.32
2019-03-28T12:50:14.993Z,59.85
2019-03-28T12:52:45.914Z,61.12
2019-03-28T12:55:16.836Z,60.36
2019-03-28T12:57:48.564Z,60.35
2019-03-28T13:00:23.403Z,61.51
2019-03-28T13:02:54.310Z,61.46
2019-03-28T13:05:25.241Z,62.04
2019-03-28T13:07:56.196Z,63.46
2019-03-28T13:10:27.450Z,64.66
2019-03-28T13:12:58.711Z,65.33
2019-03-28T13:15:29.652Z,65.64
2019-03-28T13:18:00.542Z,66.05
2019-03-28T13:20:31.469Z,65.92
2019-03-28T13:23:02.396Z,68.09
2019-03-28T13:25:33.307Z,68.97
2019-03-28T13:28:06.395Z,68.99
2019-03-28T13:30:38.185Z,68.76
2019-03-28T13:33:09.088Z,69.95
2019-03-28T13:35:40.035Z,69.93
2019-03-28T13:38:10.942Z,69.31
2019-03-28T13:40:41.874Z,69.61
2019-03-28T13:43:12.776Z,70.25
2019-03-28T13:45:44.582Z,70.73
2019-03-28T13:48:15.474Z,70.74
2019-03-28T13:50:46.419Z,70.33
2019-03-28T13:53:17.328Z,71.16
2019-03-28T13:55:48.275Z,70.81
2019-03-28T13:58:19.181Z,71.04
2019-03-28T14:00:50.939Z,70.97
2019-03-28T14:03:21.853Z,71.65
2019-03-28T14:05:52.787Z,71.58
2019-03-28T14:08:23.776Z,71.75
2019-03-28T14:10:54.703Z,72.34
2019-03-28T14:13:25.615Z,72.64
2019-03-28T14:15:58.152Z,72.64
2019-03-28T14:18:29.179Z,73.47
2019-03-28T14:21:00.095Z,75.07
2019-03-28T14:23:31.007Z,75.26
2019-03-28T14:26:10.691Z,76.69
2019-03-28T14:28:41.729Z,76.51
2019-03-28T14:31:13.639Z,76.43
2019-03-28T14:33:44.546Z,75.47
2019-03-28T14:36:15.475Z,75.31
2019-03-28T14:38:46.381Z,75.01
2019-03-28T14:41:17.313Z,74.81
2019-03-28T14:43:48.213Z,74.91
2019-03-28T14:46:20.028Z,74.90
2019-03-28T14:48:50.960Z,75.04
2019-03-28T14:51:21.943Z,75.15
2019-03-28T14:53:52.861Z,75.29
2019-03-28T14:56:24.893Z,75.48
2019-03-28T14:58:58.492Z,75.53
2019-03-28T15:01:30.396Z,75.21
2019-03-28T15:04:01.304Z,74.66
2019-03-28T15:06:32.236Z,74.73
2019-03-28T15:09:04.114Z,74.43
2019-03-28T15:11:35.039Z,74.24
2019-03-28T15:14:05.939Z,74.32
2019-03-28T15:16:37.882Z,74.42
2019-03-28T15:19:08.850Z,73.99
2019-03-28T15:21:39.785Z,73.96
2019-03-28T15:24:10.703Z,73.86
2019-03-28T15:26:47.299Z,73.22
2019-03-28T15:29:18.254Z,72.78
2019-03-28T15:31:50.846Z,73.06
2019-03-28T15:34:21.757Z,73.32
2019-03-28T15:36:53.563Z,72.75
2019-03-28T15:39:24.701Z,72.39
2019-03-28T15:41:55.635Z,72.11
2019-03-28T15:44:26.564Z,72.95
2019-03-28T15:46:58.413Z,72.90
2019-03-28T15:49:29.368Z,73.38
2019-03-28T15:52:03.116Z,72.66
2019-03-28T15:54:32.867Z,74.92
2019-03-28T15:57:03.810Z,74.76
2019-03-28T15:59:34.707Z,74.58
2019-03-28T16:02:07.131Z,74.78
2019-03-28T16:04:40.089Z,75.49
2019-03-28T16:07:11.020Z,75.18
2019-03-28T16:10:04.088Z,75.29
2019-03-28T16:12:34.932Z,74.65
2019-03-28T16:15:07.827Z,75.97
2019-03-28T16:17:39.619Z,75.93
2019-03-28T16:20:10.925Z,75.31
2019-03-28T16:22:41.853Z,75.56
2019-03-28T16:25:12.856Z,76.49
2019-03-28T16:27:44.961Z,76.00
2019-03-28T16:30:18.208Z,76.07
2019-03-28T16:32:50.896Z,76.16
2019-03-28T16:35:21.791Z,76.96
2019-03-28T16:37:53.745Z,76.82
2019-03-28T16:40:25.007Z,76.09
2019-03-28T16:42:55.942Z,77.08
2019-03-28T16:45:26.859Z,77.00
2019-03-28T16:48:02.584Z,76.66
2019-03-28T16:50:34.134Z,77.67
2019-03-28T16:53:05.119Z,77.34
2019-03-28T16:55:36.038Z,76.58
2019-03-28T16:58:06.957Z,76.16
2019-03-28T17:00:38.666Z,76.26
2019-03-28T17:03:10.624Z,76.32
2019-03-28T17:05:41.773Z,75.73
2019-03-28T17:08:13.144Z,75.81
2019-03-28T17:10:46.615Z,75.65
2019-03-28T17:13:18.759Z,75.53
2019-03-28T17:15:51.022Z,75.69
2019-03-28T17:18:23.165Z,76.05
2019-03-28T17:20:54.074Z,75.37
2019-03-28T17:23:25.023Z,75.26
2019-03-28T17:25:55.928Z,74.93
2019-03-28T17:28:26.866Z,74.81
2019-03-28T17:30:58.634Z,74.57
2019-03-28T17:33:30.409Z,74.48
2019-03-28T17:36:01.337Z,74.45
2019-03-28T17:38:32.287Z,74.22
2019-03-28T17:41:06.430Z,74.06
2019-03-28T17:43:35.845Z,74.07
2019-03-28T17:46:06.742Z,74.14
2019-03-28T17:48:38.530Z,74.17
2019-03-28T17:51:09.676Z,74.19
2019-03-28T17:53:40.955Z,74.29
2019-03-28T17:56:11.857Z,74.31
2019-03-28T17:58:48.332Z,74.23
2019-03-28T18:01:15.574Z,74.09
2019-03-28T18:03:47.427Z,75.58
2019-03-28T18:06:18.335Z,75.97
2019-03-28T18:08:49.272Z,75.79
2019-03-28T18:11:22.176Z,75.92
2019-03-28T18:13:52.835Z,75.36
2019-03-28T18:16:23.864Z,75.47
2019-03-28T18:18:55.864Z,75.22
2019-03-28T18:21:26.783Z,75.37
2019-03-28T18:23:57.723Z,75.35
2019-03-28T18:26:28.640Z,75.12
2019-03-28T18:28:59.625Z,75.11
2019-03-28T18:31:31.474Z,75.19
2019-03-28T18:34:03.321Z,75.25
2019-03-28T18:36:34.295Z,75.24
2019-03-28T18:39:06.820Z,75.59
2019-03-28T18:41:38.766Z,75.42
2019-03-28T18:44:09.731Z,75.83
2019-03-28T18:46:40.645Z,76.03
2019-03-28T18:49:12.529Z,75.88
2019-03-28T18:51:43.435Z,75.83
2019-03-28T18:54:14.368Z,75.82
2019-03-28T18:56:45.292Z,75.93
2019-03-28T18:59:16.225Z,76.40
2019-03-28T19:01:47.131Z,76.16
2019-03-28T19:04:20.013Z,76.25
2019-03-28T19:06:50.929Z,76.16
2019-03-28T19:09:21.896Z,76.06
2019-03-28T19:11:52.813Z,76.08
2019-03-28T19:14:23.746Z,76.07
2019-03-28T19:16:54.651Z,76.10
2019-03-28T19:19:38.771Z,76.19
2019-03-28T19:21:58.195Z,76.46
2019-03-28T19:24:29.126Z,77.29
2019-03-28T19:27:00.025Z,77.00
2019-03-28T19:29:30.969Z,77.21
2019-03-28T19:32:01.881Z,77.07
2019-03-28T19:34:33.639Z,76.86
2019-03-28T19:37:04.654Z,76.93
2019-03-28T19:39:36.911Z,76.81
2019-03-28T19:42:07.858Z,76.80
2019-03-28T19:44:38.864Z,76.64
2019-03-28T19:47:09.791Z,76.44
2019-03-28T19:49:40.799Z,76.37
2019-03-28T19:52:13.390Z,76.24
2019-03-28T19:54:44.386Z,75.98
2019-03-28T19:57:15.294Z,75.84
2019-03-28T19:59:46.216Z,75.65
2019-03-28T20:02:17.194Z,75.65
2019-03-28T20:04:49.110Z,75.69
2019-03-28T20:07:21.822Z,75.85
2019-03-28T20:09:52.623Z,75.77
2019-03-28T20:12:23.518Z,75.82
2019-03-28T20:14:54.451Z,75.83
2019-03-28T20:17:25.341Z,75.68
2019-03-28T20:19:57.188Z,75.76
2019-03-28T20:22:28.087Z,75.78
2019-03-28T20:24:59.028Z,75.86
2019-03-28T20:27:29.920Z,75.66
2019-03-28T20:30:01.293Z,75.63
2019-03-28T20:32:33.831Z,75.79
2019-03-28T20:35:05.863Z,76.02
2019-03-28T20:37:37.841Z,75.99
2019-03-28T20:40:11.070Z,76.16
2019-03-28T20:42:41.987Z,76.43
2019-03-28T20:45:13.437Z,76.06
2019-03-28T20:47:44.410Z,76.24
2019-03-28T20:50:17.349Z,76.03
2019-03-28T20:52:48.251Z,76.07
2019-03-28T20:55:19.192Z,75.98
2019-03-28T20:57:50.089Z,75.92
2019-03-28T21:00:39.414Z,75.89
2019-03-28T21:03:10.752Z,75.71
2019-03-28T21:05:42.552Z,75.81
2019-03-28T21:08:13.750Z,75.79
2019-03-28T21:10:44.679Z,75.58
2019-03-28T21:13:15.565Z,75.39
2019-03-28T21:15:46.506Z,75.46
2019-03-28T21:18:17.410Z,75.22
2019-03-28T21:20:49.238Z,75.11
2019-03-28T21:23:20.120Z,75.02
2019-03-28T21:25:51.060Z,75.09
2019-03-28T21:28:21.966Z,75.02
2019-03-28T21:30:53.696Z,75.20
2019-03-28T21:33:25.483Z,74.96
2019-03-28T21:35:56.546Z,74.84
2019-03-28T21:38:27.431Z,74.90
2019-03-28T21:40:59.691Z,74.77
2019-03-28T21:43:31.101Z,75.17
2019-03-28T21:46:02.037Z,75.02
2019-03-28T21:48:32.928Z,74.80
2019-03-28T21:51:04.681Z,74.89
2019-03-28T21:53:35.578Z,74.99
2019-03-28T21:56:06.516Z,75.03
2019-03-28T21:58:37.416Z,75.13
2019-03-28T22:01:08.331Z,75.26
2019-03-28T22:03:40.015Z,75.22
2019-03-28T22:06:11.888Z,75.31
2019-03-28T22:08:42.786Z,75.42
2019-03-28T22:11:13.714Z,75.20
2019-03-28T22:13:44.616Z,75.22
2019-03-28T22:16:15.534Z,75.47
2019-03-28T22:18:46.430Z,75.63
2019-03-28T22:21:19.866Z,75.74
2019-03-28T22:23:50.764Z,75.88
2019-03-28T22:26:21.690Z,75.87
2019-03-28T22:28:52.584Z,76.10
2019-03-28T22:31:23.502Z,76.00
2019-03-28T22:33:55.168Z,75.85
2019-03-28T22:36:26.136Z,75.71
2019-03-28T22:38:57.022Z,75.55
2019-03-28T22:41:27.962Z,75.60
2019-03-28T22:43:59.140Z,75.39
2019-03-28T22:46:30.072Z,75.26
2019-03-28T22:49:01.041Z,75.15
2019-03-28T22:51:32.000Z,75.06
2019-03-28T22:54:02.897Z,75.06
2019-03-28T22:56:33.818Z,74.85
2019-03-28T22:59:04.715Z,74.95
2019-03-28T23:01:36.212Z,75.02
2019-03-28T23:04:07.721Z,75.15
2019-03-28T23:06:40.141Z,75.39
2019-03-28T23:09:11.045Z,75.50
2019-03-28T23:11:47.883Z,75.79
2019-03-28T23:14:14.578Z,76.15
2019-03-28T23:16:45.498Z,76.30
2019-03-28T23:19:16.382Z,76.49
2019-03-28T23:21:48.153Z,76.50
2019-03-28T23:24:19.039Z,76.56
2019-03-28T23:26:49.970Z,76.67
2019-03-28T23:29:20.865Z,76.71
2019-03-28T23:31:51.858Z,76.57
2019-03-28T23:34:23.272Z,76.57
2019-03-28T23:36:54.224Z,76.67
2019-03-28T23:39:25.139Z,76.85
2019-03-28T23:41:56.061Z,77.15
2019-03-28T23:44:27.217Z,77.26
2019-03-28T23:46:58.782Z,77.39
2019-03-28T23:49:29.676Z,77.58
2019-03-28T23:52:01.432Z,77.72
2019-03-28T23:54:32.329Z,77.89
2019-03-28T23:57:03.353Z,78.13
2019-03-28T23:59:34.293Z,78.10
